createdAt,value
2022-10-03T00:00:18.815Z,12.96
2022-10-03T00:03:30.961Z,12.82
2022-10-03T00:06:09.470Z,12.78
2022-10-03T00:08:59.293Z,12.73
2022-10-03T00:11:57.592Z,12.81
2022-10-03T00:14:51.025Z,12.73
2022-10-03T00:17:27.101Z,12.83
2022-10-03T00:20:04.932Z,12.82
2022-10-03T00:22:37.259Z,12.88
2022-10-03T00:25:21.223Z,12.81
2022-10-03T00:28:12.580Z,12.79
2022-10-03T00:31:16.886Z,12.82
2022-10-03T00:34:03.403Z,12.90
2022-10-03T00:37:07.345Z,12.81
2022-10-03T00:40:05.186Z,12.82
2022-10-03T00:42:57.915Z,12.88
2022-10-03T00:45:49.880Z,12.91
2022-10-03T00:48:38.963Z,12.81
2022-10-03T00:51:24.414Z,12.86
2022-10-03T00:54:41.574Z,12.72
2022-10-03T00:57:27.181Z,12.65
2022-10-03T01:00:18.535Z,12.69
2022-10-03T01:03:11.881Z,12.72
2022-10-03T01:06:15.044Z,12.66
2022-10-03T01:09:08.077Z,12.62
2022-10-03T01:11:41.156Z,12.58
2022-10-03T01:14:27.076Z,12.47
2022-10-03T01:17:09.422Z,12.35
2022-10-03T01:20:08.301Z,12.47
2022-10-03T01:22:50.368Z,12.52
2022-10-03T01:25:19.451Z,12.42
2022-10-03T01:28:37.694Z,12.44
2022-10-03T01:31:10.493Z,12.64
2022-10-03T01:33:47.754Z,12.54
2022-10-03T01:37:02.895Z,12.42
2022-10-03T01:39:42.160Z,12.53
2022-10-03T01:42:18.016Z,12.59
2022-10-03T01:44:58.091Z,12.48
2022-10-03T01:47:42.042Z,12.35
2022-10-03T01:50:20.797Z,12.35
2022-10-03T01:53:14.380Z,12.42
2022-10-03T01:56:10.950Z,12.20
2022-10-03T01:58:40.638Z,12.25
2022-10-03T02:01:20.554Z,12.23
2022-10-03T02:04:06.723Z,12.26
2022-10-03T02:06:43.009Z,12.19
2022-10-03T02:09:25.002Z,12.05
2022-10-03T02:11:51.539Z,12.04
2022-10-03T02:14:22.981Z,11.99
2022-10-03T02:17:23.420Z,11.98
2022-10-03T02:20:08.959Z,11.92
2022-10-03T02:22:51.587Z,12.02
2022-10-03T02:25:51.539Z,12.12
2022-10-03T02:28:38.496Z,12.15
2022-10-03T02:31:20.166Z,12.11
2022-10-03T02:34:25.305Z,12.09
2022-10-03T02:36:54.901Z,11.98
2022-10-03T02:39:21.988Z,11.87
2022-10-03T02:42:25.876Z,11.78
2022-10-03T02:45:13.692Z,11.74
2022-10-03T02:48:30.159Z,11.81
2022-10-03T02:51:19.851Z,11.84
2022-10-03T02:54:05.127Z,11.81
2022-10-03T02:56:47.698Z,11.67
2022-10-03T02:59:51.872Z,11.59
2022-10-03T03:02:43.188Z,11.60
2022-10-03T03:05:31.864Z,11.60
2022-10-03T03:08:13.291Z,11.68
2022-10-03T03:10:58.462Z,11.92
2022-10-03T03:13:49.996Z,11.94
2022-10-03T03:16:55.035Z,11.72
2022-10-03T03:19:31.712Z,11.65
2022-10-03T03:22:05.423Z,11.64
2022-10-03T03:25:09.750Z,11.52
2022-10-03T03:27:56.385Z,11.34
2022-10-03T03:30:29.133Z,11.27
2022-10-03T03:33:05.463Z,11.43
2022-10-03T03:35:47.639Z,11.55
2022-10-03T03:38:56.469Z,11.55
2022-10-03T03:41:45.332Z,11.43
2022-10-03T03:44:46.422Z,11.37
2022-10-03T03:47:36.448Z,11.44
2022-10-03T03:50:06.595Z,11.42
2022-10-03T03:52:57.862Z,11.46
2022-10-03T03:55:40.880Z,11.43
2022-10-03T03:58:19.779Z,11.56
2022-10-03T04:01:24.292Z,11.48
2022-10-03T04:04:08.521Z,11.36
2022-10-03T04:07:00.138Z,11.43
2022-10-03T04:09:29.716Z,11.47
2022-10-03T04:12:15.469Z,11.53
2022-10-03T04:15:00.412Z,11.45
2022-10-03T04:18:28.683Z,11.42
2022-10-03T04:21:09.996Z,11.34
2022-10-03T04:23:58.135Z,11.38
2022-10-03T04:26:59.492Z,11.36
2022-10-03T04:29:48.141Z,11.23
2022-10-03T04:32:26.765Z,11.20
2022-10-03T04:35:14.691Z,11.35
2022-10-03T04:38:12.176Z,11.45
2022-10-03T04:40:49.855Z,11.47
2022-10-03T04:43:46.198Z,11.37
2022-10-03T04:46:18.807Z,11.32
2022-10-03T04:48:57.309Z,11.31
2022-10-03T04:52:07.228Z,11.25
2022-10-03T04:54:49.183Z,11.11
2022-10-03T04:57:31.617Z,11.24
2022-10-03T05:00:14.464Z,11.20
2022-10-03T05:03:22.295Z,11.38
2022-10-03T05:05:59.584Z,11.34
2022-10-03T05:08:41.150Z,11.31
2022-10-03T05:11:24.533Z,11.21
2022-10-03T05:14:02.183Z,11.15
2022-10-03T05:16:42.884Z,11.19
2022-10-03T05:19:37.320Z,11.18
2022-10-03T05:22:19.340Z,11.12
2022-10-03T05:25:30.790Z,11.14
2022-10-03T05:28:16.322Z,11.20
2022-10-03T05:30:55.802Z,11.16
2022-10-03T05:33:25.356Z,11.12
2022-10-03T05:36:27.164Z,11.06
2022-10-03T05:39:22.950Z,11.24
2022-10-03T05:42:17.748Z,11.19
2022-10-03T05:44:46.574Z,11.21
2022-10-03T05:47:48.915Z,11.08
2022-10-03T05:50:57.665Z,11.05
2022-10-03T05:54:00.014Z,11.15
2022-10-03T05:57:00.275Z,11.11
2022-10-03T05:59:40.960Z,11.05
2022-10-03T06:02:38.821Z,11.08
2022-10-03T06:05:30.683Z,11.25
2022-10-03T06:08:19.834Z,11.00
2022-10-03T06:10:57.600Z,10.99
2022-10-03T06:13:48.691Z,11.25
2022-10-03T06:16:30.218Z,11.24
2022-10-03T06:19:07.231Z,11.20
2022-10-03T06:21:56.421Z,11.19
2022-10-03T06:24:56.197Z,11.22
2022-10-03T06:27:58.307Z,11.30
2022-10-03T06:30:58.527Z,11.38
2022-10-03T06:34:08.294Z,11.51
2022-10-03T06:37:16.552Z,11.94
2022-10-03T06:40:19.831Z,11.82
2022-10-03T06:43:08.330Z,11.84
2022-10-03T06:45:56.795Z,12.02
2022-10-03T06:48:47.500Z,12.09
2022-10-03T06:51:51.523Z,12.11
2022-10-03T06:54:55.740Z,12.45
2022-10-03T06:57:37.680Z,12.34
2022-10-03T07:00:04.442Z,12.33
2022-10-03T07:03:01.982Z,12.34
2022-10-03T07:06:11.573Z,12.58
2022-10-03T07:09:26.005Z,12.68
2022-10-03T07:12:31.461Z,12.64
2022-10-03T07:15:00.974Z,12.85
2022-10-03T07:18:06.186Z,12.84
2022-10-03T07:20:54.784Z,13.04
2022-10-03T07:23:42.715Z,13.11
2022-10-03T07:26:38.112Z,13.21
2022-10-03T07:29:15.804Z,13.31
2022-10-03T07:32:34.279Z,13.41
2022-10-03T07:35:22.813Z,13.39
2022-10-03T07:38:26.413Z,13.68
2022-10-03T07:41:19.693Z,13.87
2022-10-03T07:44:09.982Z,13.99
2022-10-03T07:47:28.005Z,14.04
2022-10-03T07:50:39.746Z,13.95
2022-10-03T07:53:37.443Z,13.96
2022-10-03T07:56:18.349Z,14.40
2022-10-03T07:59:10.005Z,14.72
2022-10-03T08:02:05.170Z,14.55
2022-10-03T08:05:05.234Z,14.54
2022-10-03T08:08:10.245Z,14.52
2022-10-03T08:11:14.763Z,14.54
2022-10-03T08:13:50.310Z,15.44
2022-10-03T08:16:36.087Z,15.31
2022-10-03T08:19:28.730Z,15.12
2022-10-03T08:22:17.065Z,15.48
2022-10-03T08:25:00.606Z,15.10
2022-10-03T08:27:44.820Z,15.52
2022-10-03T08:30:23.474Z,15.47
2022-10-03T08:33:22.947Z,15.43
2022-10-03T08:36:06.614Z,15.57
2022-10-03T08:38:42.055Z,15.45
2022-10-03T08:41:29.748Z,15.83
2022-10-03T08:44:02.772Z,15.71
2022-10-03T08:47:12.122Z,15.75
2022-10-03T08:49:54.846Z,15.89
2022-10-03T08:53:11.028Z,16.54
2022-10-03T08:55:42.760Z,17.54
2022-10-03T08:58:37.461Z,18.20
2022-10-03T09:01:32.454Z,17.29
2022-10-03T09:04:17.910Z,17.12
2022-10-03T09:07:15.949Z,17.05
2022-10-03T09:10:37.796Z,17.02
2022-10-03T09:13:27.220Z,16.61
2022-10-03T09:16:21.557Z,16.54
2022-10-03T09:19:00.703Z,16.68
2022-10-03T09:21:48.028Z,16.59
2022-10-03T09:24:33.435Z,16.56
2022-10-03T09:27:25.111Z,16.54
2022-10-03T09:30:15.087Z,16.48
2022-10-03T09:33:18.373Z,16.49
2022-10-03T09:35:51.177Z,16.45
2022-10-03T09:38:36.156Z,16.67
2022-10-03T09:41:28.743Z,16.59
2022-10-03T09:44:29.562Z,16.77
2022-10-03T09:47:37.640Z,16.76
2022-10-03T09:50:53.952Z,16.85
2022-10-03T09:53:54.857Z,17.05
2022-10-03T09:56:52.758Z,16.79
2022-10-03T09:59:25.315Z,16.76
2022-10-03T10:01:59.969Z,16.79
2022-10-03T10:04:55.440Z,16.73
2022-10-03T10:07:47.849Z,16.51
2022-10-03T10:10:41.583Z,16.23
2022-10-03T10:13:08.145Z,15.95
2022-10-03T10:15:50.163Z,15.91
2022-10-03T10:18:48.001Z,16.14
2022-10-03T10:21:20.628Z,16.33
2022-10-03T10:24:03.576Z,16.19
2022-10-03T10:27:08.634Z,15.92
2022-10-03T10:30:06.000Z,16.48
2022-10-03T10:33:00.493Z,17.00
2022-10-03T10:35:35.932Z,17.21
2022-10-03T10:38:15.314Z,17.39
2022-10-03T10:41:06.747Z,17.23
2022-10-03T10:43:51.403Z,17.32
2022-10-03T10:46:36.379Z,17.40
2022-10-03T10:49:35.763Z,17.28
2022-10-03T10:52:30.285Z,17.16
2022-10-03T10:55:31.040Z,17.17
2022-10-03T10:58:22.532Z,17.23
2022-10-03T11:01:09.531Z,17.62
2022-10-03T11:04:04.408Z,17.61
2022-10-03T11:06:42.355Z,17.71
2022-10-03T11:09:25.040Z,17.48
2022-10-03T11:11:54.816Z,17.16
2022-10-03T11:14:59.580Z,16.61
2022-10-03T11:17:35.337Z,16.37
2022-10-03T11:20:38.233Z,16.72
2022-10-03T11:23:14.017Z,17.00
2022-10-03T11:25:58.993Z,17.07
2022-10-03T11:28:37.594Z,16.87
2022-10-03T11:31:27.987Z,16.89
2022-10-03T11:34:42.462Z,16.70
2022-10-03T11:37:32.566Z,16.62
2022-10-03T11:40:13.879Z,16.32
2022-10-03T11:43:16.087Z,16.35
2022-10-03T11:45:42.835Z,16.20
2022-10-03T11:48:29.969Z,16.45
2022-10-03T11:51:15.853Z,16.16
2022-10-03T11:54:29.554Z,16.24
2022-10-03T11:57:23.073Z,16.44
2022-10-03T12:00:01.754Z,16.31
2022-10-03T12:03:13.917Z,16.30
2022-10-03T12:05:52.873Z,16.45
2022-10-03T12:08:51.600Z,16.71
2022-10-03T12:11:58.162Z,16.86
2022-10-03T12:14:40.356Z,16.84
2022-10-03T12:17:16.838Z,16.89
2022-10-03T12:20:15.709Z,16.89
2022-10-03T12:22:55.467Z,16.91
2022-10-03T12:25:32.588Z,17.01
2022-10-03T12:28:21.371Z,16.78
2022-10-03T12:31:01.158Z,16.62
2022-10-03T12:33:32.768Z,16.52
2022-10-03T12:36:46.223Z,16.56
2022-10-03T12:39:50.012Z,16.33
2022-10-03T12:42:33.417Z,16.43
2022-10-03T12:45:11.150Z,16.41
2022-10-03T12:47:58.295Z,16.45
2022-10-03T12:51:06.827Z,16.31
2022-10-03T12:53:48.929Z,16.30
2022-10-03T12:56:30.117Z,16.60
2022-10-03T12:59:15.280Z,16.60
2022-10-03T13:02:04.270Z,16.33
2022-10-03T13:04:43.697Z,16.56
2022-10-03T13:07:28.471Z,16.29
2022-10-03T13:10:41.839Z,16.49
2022-10-03T13:13:14.381Z,16.52
2022-10-03T13:16:09.668Z,16.82
2022-10-03T13:18:46.000Z,16.71
2022-10-03T13:24:32.193Z,16.95
2022-10-03T13:27:12.375Z,16.88
2022-10-03T13:29:46.894Z,17.07
2022-10-03T13:32:32.441Z,16.99
2022-10-03T13:35:45.834Z,16.95
2022-10-03T13:38:31.775Z,17.02
2022-10-03T13:41:32.222Z,17.28
2022-10-03T13:44:13.194Z,17.59
2022-10-03T13:46:54.397Z,17.41
2022-10-03T13:49:34.352Z,17.38
2022-10-03T13:52:15.552Z,17.35
2022-10-03T13:55:07.112Z,17.41
2022-10-03T13:57:51.630Z,17.44
2022-10-03T14:00:25.060Z,17.34
2022-10-03T14:03:04.774Z,17.29
2022-10-03T14:06:10.691Z,17.14
2022-10-03T14:08:53.417Z,17.00
2022-10-03T14:11:22.950Z,16.96
2022-10-03T14:14:08.368Z,16.95
2022-10-03T14:16:40.821Z,16.88
2022-10-03T14:19:20.580Z,16.92
2022-10-03T14:22:12.583Z,17.02
2022-10-03T14:25:06.394Z,16.91
2022-10-03T14:27:47.775Z,16.94
2022-10-03T14:30:23.603Z,17.10
2022-10-03T14:33:24.329Z,17.14
2022-10-03T14:36:22.032Z,17.08
2022-10-03T14:39:23.998Z,17.00
2022-10-03T14:42:18.982Z,17.10
2022-10-03T14:44:53.167Z,17.16
2022-10-03T14:47:21.776Z,17.21
2022-10-03T14:49:59.211Z,17.10
2022-10-03T14:52:29.143Z,16.89
2022-10-03T14:54:58.247Z,16.87
2022-10-03T14:57:52.928Z,17.01
2022-10-03T15:00:36.073Z,17.30
2022-10-03T15:03:17.846Z,16.99
2022-10-03T15:05:56.793Z,16.98
2022-10-03T15:08:29.683Z,16.74
2022-10-03T15:10:57.117Z,16.70
2022-10-03T15:13:27.296Z,16.67
2022-10-03T15:15:56.420Z,16.58
2022-10-03T15:18:24.652Z,16.62
2022-10-03T15:20:55.161Z,16.65
2022-10-03T15:23:33.938Z,16.47
2022-10-03T15:26:04.079Z,16.44
2022-10-03T15:28:38.573Z,16.54
2022-10-03T15:31:15.377Z,16.44
2022-10-03T15:33:44.478Z,16.45
2022-10-03T15:36:21.506Z,16.43
2022-10-03T15:39:00.371Z,16.43
2022-10-03T15:42:06.133Z,16.50
2022-10-03T15:44:39.501Z,16.36
2022-10-03T15:47:12.751Z,16.35
2022-10-03T15:49:53.811Z,16.41
2022-10-03T15:52:31.175Z,16.47
2022-10-03T15:55:11.507Z,16.26
2022-10-03T15:57:47.116Z,16.31
2022-10-03T16:00:36.095Z,16.23
2022-10-03T16:03:13.736Z,16.19
2022-10-03T16:06:02.704Z,16.17
2022-10-03T16:08:33.668Z,16.36
2022-10-03T16:11:12.465Z,16.42
2022-10-03T16:13:44.389Z,16.30
2022-10-03T16:16:47.847Z,16.26
2022-10-03T16:19:47.620Z,16.18
2022-10-03T16:22:36.293Z,16.32
2022-10-03T16:25:16.215Z,16.29
2022-10-03T16:27:53.183Z,16.29
2022-10-03T16:30:26.434Z,16.02
2022-10-03T16:33:19.417Z,15.98
2022-10-03T16:36:02.358Z,15.84
2022-10-03T16:38:43.418Z,15.73
2022-10-03T16:41:10.134Z,15.72
2022-10-03T16:43:37.468Z,15.62
2022-10-03T16:46:14.908Z,15.66
2022-10-03T16:49:02.957Z,15.66
2022-10-03T16:51:54.479Z,15.51
2022-10-03T16:54:22.853Z,15.48
2022-10-03T16:56:59.352Z,15.53
2022-10-03T16:59:29.470Z,15.47
2022-10-03T17:02:03.598Z,15.42
2022-10-03T17:04:35.930Z,15.42
2022-10-03T17:07:23.912Z,15.33
2022-10-03T17:09:53.425Z,15.49
2022-10-03T17:12:37.211Z,15.37
2022-10-03T17:15:07.758Z,15.34
2022-10-03T17:17:44.927Z,15.32
2022-10-03T17:20:26.478Z,15.29
2022-10-03T17:23:03.743Z,15.24
2022-10-03T17:25:55.656Z,15.24
2022-10-03T17:28:39.730Z,15.21
2022-10-03T17:31:21.158Z,15.24
2022-10-03T17:33:53.535Z,15.08
2022-10-03T17:36:50.628Z,15.13
2022-10-03T17:39:26.116Z,15.17
2022-10-03T17:42:00.061Z,15.04
2022-10-03T17:44:47.484Z,14.93
2022-10-03T17:47:49.543Z,14.91
2022-10-03T17:50:25.002Z,14.83
2022-10-03T17:52:54.108Z,14.85
2022-10-03T17:55:34.506Z,14.80
2022-10-03T17:58:12.175Z,14.68
2022-10-03T18:00:45.107Z,14.63
2022-10-03T18:03:41.240Z,14.61
2022-10-03T18:06:31.620Z,14.59
2022-10-03T18:09:06.828Z,14.60
2022-10-03T18:11:35.815Z,14.54
2022-10-03T18:14:17.574Z,14.55
2022-10-03T18:17:03.853Z,14.47
2022-10-03T18:20:08.050Z,14.56
2022-10-03T18:22:41.143Z,14.50
2022-10-03T18:26:08.095Z,14.41
2022-10-03T18:28:36.486Z,14.47
2022-10-03T18:31:11.807Z,14.42
2022-10-03T18:33:51.089Z,14.34
2022-10-03T18:36:35.490Z,14.41
2022-10-03T18:39:15.325Z,14.32
2022-10-03T18:41:48.590Z,14.35
2022-10-03T18:44:19.574Z,14.47
2022-10-03T18:46:50.835Z,14.46
2022-10-03T18:49:39.653Z,14.37
2022-10-03T18:52:24.343Z,14.26
2022-10-03T18:54:50.925Z,14.32
2022-10-03T18:57:25.433Z,14.44
2022-10-03T19:00:18.274Z,14.47
2022-10-03T19:02:53.834Z,14.37
2022-10-03T19:05:21.704Z,14.39
2022-10-03T19:08:02.006Z,14.32
2022-10-03T19:10:50.065Z,14.37
2022-10-03T19:13:45.574Z,14.26
2022-10-03T19:16:20.523Z,14.27
2022-10-03T19:19:02.865Z,14.18
2022-10-03T19:21:35.555Z,14.16
2022-10-03T19:24:17.511Z,14.10
2022-10-03T19:26:55.977Z,14.15
2022-10-03T19:29:33.011Z,14.05
2022-10-03T19:32:08.336Z,14.15
2022-10-03T19:34:38.801Z,13.95
2022-10-03T19:37:14.014Z,13.88
2022-10-03T19:39:40.724Z,13.76
2022-10-03T19:42:41.824Z,13.79
2022-10-03T19:45:13.351Z,13.81
2022-10-03T19:47:50.997Z,13.87
2022-10-03T19:50:25.307Z,14.05
2022-10-03T19:52:52.369Z,14.04
2022-10-03T19:55:34.126Z,14.19
2022-10-03T19:58:24.278Z,14.00
2022-10-03T20:00:54.709Z,13.88
2022-10-03T20:03:44.168Z,13.93
2022-10-03T20:06:36.215Z,13.69
2022-10-03T20:09:18.181Z,13.55
2022-10-03T20:11:48.583Z,13.70
2022-10-03T20:14:27.081Z,13.71
2022-10-03T20:17:10.166Z,13.82
2022-10-03T20:19:46.946Z,13.61
2022-10-03T20:22:14.882Z,13.39
2022-10-03T20:24:45.235Z,13.46
2022-10-03T20:27:28.430Z,13.50
2022-10-03T20:30:06.304Z,13.46
2022-10-03T20:32:37.479Z,13.55
2022-10-03T20:35:04.924Z,13.46
2022-10-03T20:37:52.531Z,13.38
2022-10-03T20:40:31.088Z,13.25
2022-10-03T20:43:10.381Z,13.17
2022-10-03T20:45:38.305Z,13.27
2022-10-03T20:48:20.098Z,13.42
2022-10-03T20:50:48.095Z,13.43
2022-10-03T20:53:24.908Z,13.24
2022-10-03T20:56:03.094Z,13.09
2022-10-03T20:58:34.862Z,13.01
2022-10-03T21:01:08.151Z,13.10
2022-10-03T21:03:38.095Z,13.06
2022-10-03T21:06:19.628Z,13.16
2022-10-03T21:08:47.947Z,13.15
2022-10-03T21:11:27.860Z,12.98
2022-10-03T21:14:26.613Z,12.93
2022-10-03T21:16:55.218Z,12.82
2022-10-03T21:19:32.067Z,12.77
2022-10-03T21:22:03.100Z,12.76
2022-10-03T21:24:42.537Z,12.95
2022-10-03T21:27:17.988Z,12.96
2022-10-03T21:30:01.720Z,12.98
2022-10-03T21:32:42.788Z,12.88
2022-10-03T21:35:27.397Z,12.77
2022-10-03T21:38:10.731Z,12.84
2022-10-03T21:41:03.582Z,12.88
2022-10-03T21:43:44.005Z,12.82
2022-10-03T21:46:36.763Z,12.77
2022-10-03T21:49:12.480Z,12.74
2022-10-03T21:51:48.554Z,12.58
2022-10-03T21:54:43.011Z,12.58
2022-10-03T21:57:47.037Z,12.64
2022-10-03T22:00:15.201Z,12.59
2022-10-03T22:02:55.373Z,12.51
2022-10-03T22:05:42.392Z,12.67
2022-10-03T22:08:23.328Z,12.70
2022-10-03T22:10:57.182Z,12.67
2022-10-03T22:13:28.746Z,12.45
2022-10-03T22:16:09.147Z,12.44
2022-10-03T22:19:07.714Z,12.43
2022-10-03T22:21:48.057Z,12.34
2022-10-03T22:24:42.077Z,12.36
2022-10-03T22:27:25.296Z,12.38
2022-10-03T22:30:07.045Z,12.39
2022-10-03T22:32:51.755Z,12.47
2022-10-03T22:35:43.546Z,12.53
2022-10-03T22:38:10.625Z,12.46
2022-10-03T22:40:38.073Z,12.38
2022-10-03T22:43:06.200Z,12.30
2022-10-03T22:45:37.696Z,12.30
2022-10-03T22:48:11.259Z,12.40
2022-10-03T22:50:41.683Z,12.32
2022-10-03T22:53:15.516Z,12.35
2022-10-03T22:55:46.700Z,12.41
2022-10-03T22:58:13.998Z,12.62
2022-10-03T23:00:42.088Z,12.46
2022-10-03T23:03:26.660Z,12.34
2022-10-03T23:06:23.057Z,12.29
2022-10-03T23:09:02.602Z,12.24
2022-10-03T23:11:32.005Z,12.15
2022-10-03T23:14:25.950Z,12.10
2022-10-03T23:17:02.307Z,12.04
2022-10-03T23:19:47.884Z,12.01
2022-10-03T23:22:18.342Z,12.09
2022-10-03T23:24:53.687Z,12.11
2022-10-03T23:27:38.536Z,11.97
2022-10-03T23:30:11.244Z,11.88
2022-10-03T23:32:46.915Z,11.92
2022-10-03T23:35:43.204Z,11.93
2022-10-03T23:38:49.050Z,11.81
2022-10-03T23:41:29.962Z,11.79
2022-10-03T23:43:58.083Z,11.75
2022-10-03T23:46:28.477Z,11.69
2022-10-03T23:48:58.766Z,11.67
2022-10-03T23:51:32.814Z,11.74
2022-10-03T23:54:03.898Z,11.69
2022-10-03T23:56:36.993Z,11.74
2022-10-03T23:59:03.880Z,11.66
